West Rushville, Ohio
Current Conditions -  °F | °C
As of 8:53 PM on Saturday 22 Nov 2014 (Local Time) from KLHQ Reporting Station
Overcast Overcast  
Wind Chill: 51°   Ceiling: 10000
Heat Index: 51°   Visibility: 10mi
Dew Point: 32°   Wind: 7mph
Humidity: 48%   Direction: 180°S
Pressure: 30.1"   Gusts: NA
Location:  39.76°N, 82.45°W
Report Text: KLHQ 230153Z AUTO 18006KT 10SM OVC100 11/00 A3010 RMK AO2 SLP197 T01060000
Loading
Personal Weather Stations






























Interactive Weather Map New forecast layout! Learn more

10-Day Weather Forecast

Advertisements
Track Severe Weather on mobile